New Kensington, PA

11:39 PM EST on February 11, 2016 (GMT -0500)
40 Acres | | Change Station
CLOSE
Current Station
Personal Weather Station
Location: New Kensington, PA
Elevation: 1003 ft
Nearby Weather Stations

Elev 1003 ft 40.58 °N, 79.74 °W | Updated 1 second ago

Clear
Clear
6.3 °F
Feels Like 6 °F
N
0.0
Wind Variable Wind from North
Gusts 0.0 mph

Today
High -- | Low -- °F
--% Chance of Precip.
Yesterday
High -- | Low -- °F
Precip. -- in
Pressure 30.25 in
Visibility 10.0 miles
Clouds Clear
Windchill 6 °F
Dew Point 1 °F
Humidity 77%
Rainfall in
Snow Depth Not available.
7:18 AM 5:48 PM
Waxing Crescent, 17% visible
METAR KBTP 120435Z AUTO 23003KT 10SM CLR M13/M16 A3025 RMK AO1
Pressure 30.25 in
Visibility 10.0 miles
Clouds Clear
Windchill 6 °F
Dew Point 1 °F
Humidity 77%
Rainfall in
Snow Depth Not available.
7:18 AM 5:48 PM
Waxing Crescent, 17% visible
METAR KBTP 120435Z AUTO 23003KT 10SM CLR M13/M16 A3025 RMK AO1

10-Day Weather Forecast

Almanac

Astronomy

Feb. 11, 2016 Rise Set
Actual Time
Civil Twilight
Nautical Twilight
Astronomical Twilight
Moon
Length of Visible Light
Length of Day
Tomorrow will be .
, % of the Moon is Illuminated

Today's Extremes

State Highs State Lows

Community

WunderPhotos

Upload Photos

1,892,266 photos uploaded!

WunderBlog® & News

Nearby

Air Quality

  Air Quality AQ Index Pollutant
Not available.

Snow Depth

Station Depth Elevation

Earthquake Activity

City Distance Mag. Time & Date
Minimum magnitude displayed is 2.5.

Coastal Water Temperatures

Place Temperature

Stations

Nearby Weather Stations

Station Location Temp. Windchill Dew Point Humidity Wind Precip. Elev Updated Type
                   

Watches & Warnings

There are currently no watches in effect.